weather.gov     
National Weather Service

Terminal Aerodrome Forecast
NWS Homepage
This page is being discontinued on March 12, 2014.
The same data is available at this site. Please update your bookmarks.
Thank you, and we apologize for the inconvenience.
Please send an email to SR-SRH.Webmaster@noaa.gov with any concerns.


Current Version
Previous Version:    01  02  03  04  05  06  07  08  09  10  11  12  13  14  15  16  17  18  19  20  21  22  23  24  25  26  27  28  29  30  
   31  32  33  34  35  36  37  38  39  40  41  42  43  44  45  46  47  48  49  
[Printable]
450
FTUS45 KFGZ 180500 RRA
TAFFLG
TAF
KFLG 180541Z 1806/1906 VRB05KT P6SM BKN007 OVC015
      TEMPO 1806/1808 2SM -SN BR SCT007 BKN015 OVC030
     FM180800 VRB03KT 3SM BR OVC010
     FM181000 VRB04KT 1SM BR OVC009
     FM181400 VRB05KT P6SM VCFG SCT009 BKN025
      TEMPO 1814/1818 1SM -SHSN BR BKN009
     FM181800 23008KT P6SM SCT025 BKN035
      TEMPO 1818/1822 1SM -SHSN BKN012
     FM190100 VRB03KT P6SM SCT025 SCT060=


U.S. Dept. of Commerce
NOAA National Weather Service
1325 East West Highway
Silver Spring, MD 20910
E-mail: w-nws.webmaster@noaa.gov
Page last modified: May 16, 2007
NATIONAL WEATHER SERVICE: for Safety, for Work, for Fun - FOR LIFE